sensor_id;sensor_type;location;lat;lon;timestamp;temperature;humidity
14006;DHT22;7078;51.542;7.314;2024-02-23T00:02:16;6.50;99.90
14006;DHT22;7078;51.542;7.314;2024-02-23T00:04:41;6.40;99.90
14006;DHT22;7078;51.542;7.314;2024-02-23T00:07:07;6.30;99.90
14006;DHT22;7078;51.542;7.314;2024-02-23T00:09:33;6.20;99.90
14006;DHT22;7078;51.542;7.314;2024-02-23T00:11:59;6.10;99.90
14006;DHT22;7078;51.542;7.314;2024-02-23T00:14:24;6.00;99.90
14006;DHT22;7078;51.542;7.314;2024-02-23T00:16:50;5.90;99.90
14006;DHT22;7078;51.542;7.314;2024-02-23T00:19:15;5.80;99.90
14006;DHT22;7078;51.542;7.314;2024-02-23T00:21:43;5.90;99.90
14006;DHT22;7078;51.542;7.314;2024-02-23T00:24:13;5.70;99.90
14006;DHT22;7078;51.542;7.314;2024-02-23T00:26:38;5.70;99.90
14006;DHT22;7078;51.542;7.314;2024-02-23T00:29:04;5.70;99.90
14006;DHT22;7078;51.542;7.314;2024-02-23T00:31:29;5.70;99.90
14006;DHT22;7078;51.542;7.314;2024-02-23T00:33:55;5.70;99.90
14006;DHT22;7078;51.542;7.314;2024-02-23T00:36:20;5.70;99.90
14006;DHT22;7078;51.542;7.314;2024-02-23T00:38:46;5.70;99.90
14006;DHT22;7078;51.542;7.314;2024-02-23T00:41:11;5.70;99.90
14006;DHT22;7078;51.542;7.314;2024-02-23T00:43:38;5.70;99.90
14006;DHT22;7078;51.542;7.314;2024-02-23T00:46:04;5.80;99.90
14006;DHT22;7078;51.542;7.314;2024-02-23T00:48:30;5.80;99.90
14006;DHT22;7078;51.542;7.314;2024-02-23T00:50:55;5.80;99.90
14006;DHT22;7078;51.542;7.314;2024-02-23T00:53:21;5.80;99.90
14006;DHT22;7078;51.542;7.314;2024-02-23T00:55:47;5.80;99.90
14006;DHT22;7078;51.542;7.314;2024-02-23T00:58:13;5.80;99.90
14006;DHT22;7078;51.542;7.314;2024-02-23T01:00:38;5.80;99.90
14006;DHT22;7078;51.542;7.314;2024-02-23T01:03:04;5.80;99.90
14006;DHT22;7078;51.542;7.314;2024-02-23T01:05:30;5.90;99.90
14006;DHT22;7078;51.542;7.314;2024-02-23T01:07:56;5.90;99.90
14006;DHT22;7078;51.542;7.314;2024-02-23T01:10:21;5.90;99.90
14006;DHT22;7078;51.542;7.314;2024-02-23T01:12:47;5.90;99.90
14006;DHT22;7078;51.542;7.314;2024-02-23T01:15:12;5.90;99.90
14006;DHT22;7078;51.542;7.314;2024-02-23T01:17:38;5.90;99.90
14006;DHT22;7078;51.542;7.314;2024-02-23T01:20:04;6.00;99.90
14006;DHT22;7078;51.542;7.314;2024-02-23T01:22:30;6.00;99.90
14006;DHT22;7078;51.542;7.314;2024-02-23T01:24:55;6.00;99.90
14006;DHT22;7078;51.542;7.314;2024-02-23T01:27:21;6.10;99.90
14006;DHT22;7078;51.542;7.314;2024-02-23T01:29:48;6.10;99.90
14006;DHT22;7078;51.542;7.314;2024-02-23T01:32:13;6.10;99.90
14006;DHT22;7078;51.542;7.314;2024-02-23T01:34:39;6.10;99.90
14006;DHT22;7078;51.542;7.314;2024-02-23T01:37:04;6.00;99.90
14006;DHT22;7078;51.542;7.314;2024-02-23T01:39:30;6.00;99.90
14006;DHT22;7078;51.542;7.314;2024-02-23T01:41:55;6.00;99.90
14006;DHT22;7078;51.542;7.314;2024-02-23T01:44:21;5.90;99.90
14006;DHT22;7078;51.542;7.314;2024-02-23T01:46:47;6.00;99.90
14006;DHT22;7078;51.542;7.314;2024-02-23T01:49:13;6.00;99.90
14006;DHT22;7078;51.542;7.314;2024-02-23T01:51:39;6.00;99.90
14006;DHT22;7078;51.542;7.314;2024-02-23T01:54:05;6.00;99.90
14006;DHT22;7078;51.542;7.314;2024-02-23T01:56:32;6.00;99.90
14006;DHT22;7078;51.542;7.314;2024-02-23T01:58:59;6.00;99.90
14006;DHT22;7078;51.542;7.314;2024-02-23T02:01:25;6.00;99.90
14006;DHT22;7078;51.542;7.314;2024-02-23T02:03:51;6.00;99.90
14006;DHT22;7078;51.542;7.314;2024-02-23T02:06:17;6.10;99.90
14006;DHT22;7078;51.542;7.314;2024-02-23T02:08:42;6.10;99.90
14006;DHT22;7078;51.542;7.314;2024-02-23T02:11:08;6.10;99.90
14006;DHT22;7078;51.542;7.314;2024-02-23T02:13:34;6.10;99.90
14006;DHT22;7078;51.542;7.314;2024-02-23T02:16:00;6.10;99.90
14006;DHT22;7078;51.542;7.314;2024-02-23T02:18:27;6.10;99.90
14006;DHT22;7078;51.542;7.314;2024-02-23T02:20:57;6.10;99.90
14006;DHT22;7078;51.542;7.314;2024-02-23T02:23:23;6.10;99.90
14006;DHT22;7078;51.542;7.314;2024-02-23T02:25:56;6.10;99.90
14006;DHT22;7078;51.542;7.314;2024-02-23T02:28:23;6.10;99.90
14006;DHT22;7078;51.542;7.314;2024-02-23T02:30:49;6.10;99.90
14006;DHT22;7078;51.542;7.314;2024-02-23T02:33:15;6.10;99.90
14006;DHT22;7078;51.542;7.314;2024-02-23T02:35:40;6.10;99.90
14006;DHT22;7078;51.542;7.314;2024-02-23T02:38:06;6.10;99.90
14006;DHT22;7078;51.542;7.314;2024-02-23T02:40:31;6.10;99.90
14006;DHT22;7078;51.542;7.314;2024-02-23T02:42:57;6.10;99.90
14006;DHT22;7078;51.542;7.314;2024-02-23T02:45:23;6.10;99.90
14006;DHT22;7078;51.542;7.314;2024-02-23T02:47:49;6.10;99.90
14006;DHT22;7078;51.542;7.314;2024-02-23T02:50:15;6.10;99.90
14006;DHT22;7078;51.542;7.314;2024-02-23T02:52:41;6.20;99.90
14006;DHT22;7078;51.542;7.314;2024-02-23T02:55:07;6.30;99.90
14006;DHT22;7078;51.542;7.314;2024-02-23T02:57:33;6.30;99.90
14006;DHT22;7078;51.542;7.314;2024-02-23T02:59:59;6.30;99.90
14006;DHT22;7078;51.542;7.314;2024-02-23T03:02:24;6.30;99.90
14006;DHT22;7078;51.542;7.314;2024-02-23T03:04:50;6.30;99.90
14006;DHT22;7078;51.542;7.314;2024-02-23T03:07:19;6.20;99.90
14006;DHT22;7078;51.542;7.314;2024-02-23T03:09:44;6.20;99.90
14006;DHT22;7078;51.542;7.314;2024-02-23T03:12:10;6.10;99.90
14006;DHT22;7078;51.542;7.314;2024-02-23T03:14:36;6.10;99.90
14006;DHT22;7078;51.542;7.314;2024-02-23T03:17:04;6.10;99.90
14006;DHT22;7078;51.542;7.314;2024-02-23T03:19:30;6.00;99.90
14006;DHT22;7078;51.542;7.314;2024-02-23T03:21:57;6.00;99.90
14006;DHT22;7078;51.542;7.314;2024-02-23T03:24:23;6.00;99.90
14006;DHT22;7078;51.542;7.314;2024-02-23T03:26:48;6.00;99.90
14006;DHT22;7078;51.542;7.314;2024-02-23T03:29:14;6.00;99.90
14006;DHT22;7078;51.542;7.314;2024-02-23T03:31:39;5.90;99.90
14006;DHT22;7078;51.542;7.314;2024-02-23T03:34:05;5.90;99.90
14006;DHT22;7078;51.542;7.314;2024-02-23T03:36:31;5.90;99.90
14006;DHT22;7078;51.542;7.314;2024-02-23T03:38:56;5.80;99.90
14006;DHT22;7078;51.542;7.314;2024-02-23T03:41:21;5.80;99.90
14006;DHT22;7078;51.542;7.314;2024-02-23T03:43:47;5.80;99.90
14006;DHT22;7078;51.542;7.314;2024-02-23T03:46:13;5.70;99.90
14006;DHT22;7078;51.542;7.314;2024-02-23T03:48:40;5.70;99.90
14006;DHT22;7078;51.542;7.314;2024-02-23T03:51:06;5.70;99.90
14006;DHT22;7078;51.542;7.314;2024-02-23T03:53:33;5.70;99.90
14006;DHT22;7078;51.542;7.314;2024-02-23T03:55:59;5.80;99.90
14006;DHT22;7078;51.542;7.314;2024-02-23T03:58:24;5.80;99.90
14006;DHT22;7078;51.542;7.314;2024-02-23T04:00:51;5.90;99.90
14006;DHT22;7078;51.542;7.314;2024-02-23T04:03:16;5.90;99.90
14006;DHT22;7078;51.542;7.314;2024-02-23T04:05:42;5.90;99.90
14006;DHT22;7078;51.542;7.314;2024-02-23T04:08:07;5.90;99.90
14006;DHT22;7078;51.542;7.314;2024-02-23T04:10:33;5.90;99.90
14006;DHT22;7078;51.542;7.314;2024-02-23T04:13:00;6.00;99.90
14006;DHT22;7078;51.542;7.314;2024-02-23T04:15:26;6.00;99.90
14006;DHT22;7078;51.542;7.314;2024-02-23T04:17:52;6.00;99.90
14006;DHT22;7078;51.542;7.314;2024-02-23T04:20:17;6.00;99.90
14006;DHT22;7078;51.542;7.314;2024-02-23T04:22:43;6.00;99.90
14006;DHT22;7078;51.542;7.314;2024-02-23T04:25:08;6.00;99.90
14006;DHT22;7078;51.542;7.314;2024-02-23T04:27:34;6.00;99.90
14006;DHT22;7078;51.542;7.314;2024-02-23T04:29:59;6.00;99.90
14006;DHT22;7078;51.542;7.314;2024-02-23T04:32:25;6.10;99.90
14006;DHT22;7078;51.542;7.314;2024-02-23T04:34:51;6.10;99.90
14006;DHT22;7078;51.542;7.314;2024-02-23T04:37:16;6.10;99.90
14006;DHT22;7078;51.542;7.314;2024-02-23T04:39:43;6.10;99.90
14006;DHT22;7078;51.542;7.314;2024-02-23T04:42:09;6.10;99.90
14006;DHT22;7078;51.542;7.314;2024-02-23T04:44:35;6.10;99.90
14006;DHT22;7078;51.542;7.314;2024-02-23T04:47:01;6.10;99.90
14006;DHT22;7078;51.542;7.314;2024-02-23T04:49:26;6.10;99.90
14006;DHT22;7078;51.542;7.314;2024-02-23T04:51:53;6.10;99.90
14006;DHT22;7078;51.542;7.314;2024-02-23T04:54:18;6.10;99.90
14006;DHT22;7078;51.542;7.314;2024-02-23T04:56:44;6.10;99.90
14006;DHT22;7078;51.542;7.314;2024-02-23T04:59:10;6.10;99.90
14006;DHT22;7078;51.542;7.314;2024-02-23T05:01:39;6.10;99.90
14006;DHT22;7078;51.542;7.314;2024-02-23T05:04:04;6.10;99.90
14006;DHT22;7078;51.542;7.314;2024-02-23T05:06:30;6.10;99.90
14006;DHT22;7078;51.542;7.314;2024-02-23T05:08:56;6.20;99.90
14006;DHT22;7078;51.542;7.314;2024-02-23T05:11:21;6.20;99.90
14006;DHT22;7078;51.542;7.314;2024-02-23T05:13:47;6.20;99.90
14006;DHT22;7078;51.542;7.314;2024-02-23T05:16:16;6.20;99.90
14006;DHT22;7078;51.542;7.314;2024-02-23T05:18:43;6.20;99.90
14006;DHT22;7078;51.542;7.314;2024-02-23T05:21:09;6.20;99.90
14006;DHT22;7078;51.542;7.314;2024-02-23T05:23:35;6.20;99.90
14006;DHT22;7078;51.542;7.314;2024-02-23T05:26:00;6.10;99.90
14006;DHT22;7078;51.542;7.314;2024-02-23T05:28:26;6.10;99.90
14006;DHT22;7078;51.542;7.314;2024-02-23T05:30:53;6.10;99.90
14006;DHT22;7078;51.542;7.314;2024-02-23T05:33:19;6.10;99.90
14006;DHT22;7078;51.542;7.314;2024-02-23T05:35:46;6.10;99.90
14006;DHT22;7078;51.542;7.314;2024-02-23T05:38:14;6.10;99.90
14006;DHT22;7078;51.542;7.314;2024-02-23T05:40:40;6.10;99.90
14006;DHT22;7078;51.542;7.314;2024-02-23T05:43:05;6.10;99.90
14006;DHT22;7078;51.542;7.314;2024-02-23T05:45:31;6.10;99.90
14006;DHT22;7078;51.542;7.314;2024-02-23T05:47:57;6.10;99.90
14006;DHT22;7078;51.542;7.314;2024-02-23T05:50:22;6.10;99.90
14006;DHT22;7078;51.542;7.314;2024-02-23T05:52:47;6.10;99.90
14006;DHT22;7078;51.542;7.314;2024-02-23T05:55:13;6.20;99.90
14006;DHT22;7078;51.542;7.314;2024-02-23T05:57:39;6.20;99.90
14006;DHT22;7078;51.542;7.314;2024-02-23T06:00:05;6.10;99.90
14006;DHT22;7078;51.542;7.314;2024-02-23T06:02:31;6.10;99.90
14006;DHT22;7078;51.542;7.314;2024-02-23T06:04:57;6.10;99.90
14006;DHT22;7078;51.542;7.314;2024-02-23T06:07:23;6.10;99.90
14006;DHT22;7078;51.542;7.314;2024-02-23T06:09:56;6.10;99.90
14006;DHT22;7078;51.542;7.314;2024-02-23T06:12:23;6.00;99.90
14006;DHT22;7078;51.542;7.314;2024-02-23T06:14:48;6.00;99.90
14006;DHT22;7078;51.542;7.314;2024-02-23T06:17:14;5.90;99.90
14006;DHT22;7078;51.542;7.314;2024-02-23T06:19:39;5.90;99.90
14006;DHT22;7078;51.542;7.314;2024-02-23T06:22:05;5.80;99.90
14006;DHT22;7078;51.542;7.314;2024-02-23T06:24:32;5.80;99.90
14006;DHT22;7078;51.542;7.314;2024-02-23T06:26:57;5.70;99.90
14006;DHT22;7078;51.542;7.314;2024-02-23T06:29:23;5.70;99.90
14006;DHT22;7078;51.542;7.314;2024-02-23T06:31:49;5.70;99.90
14006;DHT22;7078;51.542;7.314;2024-02-23T06:34:15;5.70;99.90
14006;DHT22;7078;51.542;7.314;2024-02-23T06:36:41;5.70;99.90
14006;DHT22;7078;51.542;7.314;2024-02-23T06:39:07;5.70;99.90
14006;DHT22;7078;51.542;7.314;2024-02-23T06:41:33;5.70;99.90
14006;DHT22;7078;51.542;7.314;2024-02-23T06:43:59;5.70;99.90
14006;DHT22;7078;51.542;7.314;2024-02-23T06:46:25;5.70;99.90
14006;DHT22;7078;51.542;7.314;2024-02-23T06:48:50;5.80;99.90
14006;DHT22;7078;51.542;7.314;2024-02-23T06:51:16;5.80;99.90
14006;DHT22;7078;51.542;7.314;2024-02-23T06:53:42;5.80;99.90
14006;DHT22;7078;51.542;7.314;2024-02-23T06:56:07;5.80;99.90
14006;DHT22;7078;51.542;7.314;2024-02-23T06:58:33;5.80;99.90
14006;DHT22;7078;51.542;7.314;2024-02-23T07:00:59;5.80;99.90
14006;DHT22;7078;51.542;7.314;2024-02-23T07:03:26;5.90;99.90
14006;DHT22;7078;51.542;7.314;2024-02-23T07:05:52;6.00;99.90
14006;DHT22;7078;51.542;7.314;2024-02-23T07:08:17;6.00;99.90
14006;DHT22;7078;51.542;7.314;2024-02-23T07:10:43;6.00;99.90
14006;DHT22;7078;51.542;7.314;2024-02-23T07:13:09;6.00;99.90
14006;DHT22;7078;51.542;7.314;2024-02-23T07:15:34;5.90;99.90
14006;DHT22;7078;51.542;7.314;2024-02-23T07:18:01;5.90;99.90
14006;DHT22;7078;51.542;7.314;2024-02-23T07:20:26;5.80;99.90
14006;DHT22;7078;51.542;7.314;2024-02-23T07:22:52;5.90;99.90
14006;DHT22;7078;51.542;7.314;2024-02-23T07:25:18;5.90;99.90
14006;DHT22;7078;51.542;7.314;2024-02-23T07:27:45;5.90;99.90
14006;DHT22;7078;51.542;7.314;2024-02-23T07:30:12;6.00;99.90
14006;DHT22;7078;51.542;7.314;2024-02-23T07:32:37;6.00;99.90
14006;DHT22;7078;51.542;7.314;2024-02-23T07:35:03;6.10;99.90
14006;DHT22;7078;51.542;7.314;2024-02-23T07:37:29;6.10;99.90
14006;DHT22;7078;51.542;7.314;2024-02-23T07:39:55;6.20;99.90
14006;DHT22;7078;51.542;7.314;2024-02-23T07:42:21;6.20;99.90
14006;DHT22;7078;51.542;7.314;2024-02-23T07:44:47;6.30;99.90
14006;DHT22;7078;51.542;7.314;2024-02-23T07:47:12;6.30;99.90
14006;DHT22;7078;51.542;7.314;2024-02-23T07:49:38;6.40;99.90
14006;DHT22;7078;51.542;7.314;2024-02-23T07:52:06;6.40;99.90
14006;DHT22;7078;51.542;7.314;2024-02-23T07:54:32;6.40;99.90
14006;DHT22;7078;51.542;7.314;2024-02-23T07:56:57;6.40;99.90
14006;DHT22;7078;51.542;7.314;2024-02-23T07:59:23;6.40;99.90
14006;DHT22;7078;51.542;7.314;2024-02-23T08:01:49;6.50;99.90
14006;DHT22;7078;51.542;7.314;2024-02-23T08:04:14;6.60;99.90
14006;DHT22;7078;51.542;7.314;2024-02-23T08:06:41;6.70;99.90
14006;DHT22;7078;51.542;7.314;2024-02-23T08:09:07;6.70;99.90
14006;DHT22;7078;51.542;7.314;2024-02-23T08:11:34;6.80;99.90
14006;DHT22;7078;51.542;7.314;2024-02-23T08:14:00;6.70;99.90
14006;DHT22;7078;51.542;7.314;2024-02-23T08:16:28;6.70;99.90
14006;DHT22;7078;51.542;7.314;2024-02-23T08:18:54;6.70;99.90
14006;DHT22;7078;51.542;7.314;2024-02-23T08:21:19;6.70;99.90
14006;DHT22;7078;51.542;7.314;2024-02-23T08:23:45;6.80;99.90
14006;DHT22;7078;51.542;7.314;2024-02-23T08:26:10;6.80;99.90
14006;DHT22;7078;51.542;7.314;2024-02-23T08:28:36;6.90;99.90
14006;DHT22;7078;51.542;7.314;2024-02-23T08:31:02;6.90;99.90
14006;DHT22;7078;51.542;7.314;2024-02-23T08:33:28;7.00;99.90
14006;DHT22;7078;51.542;7.314;2024-02-23T08:35:54;7.00;99.90
14006;DHT22;7078;51.542;7.314;2024-02-23T08:38:19;7.00;99.90
14006;DHT22;7078;51.542;7.314;2024-02-23T08:40:45;7.00;99.90
14006;DHT22;7078;51.542;7.314;2024-02-23T08:43:11;7.10;99.90
14006;DHT22;7078;51.542;7.314;2024-02-23T08:45:36;7.10;99.90
14006;DHT22;7078;51.542;7.314;2024-02-23T08:48:02;7.10;99.90
14006;DHT22;7078;51.542;7.314;2024-02-23T08:50:28;7.20;99.90
14006;DHT22;7078;51.542;7.314;2024-02-23T08:52:54;7.30;99.90
14006;DHT22;7078;51.542;7.314;2024-02-23T08:55:20;7.30;99.90
14006;DHT22;7078;51.542;7.314;2024-02-23T08:57:46;7.30;99.90
14006;DHT22;7078;51.542;7.314;2024-02-23T09:00:13;7.30;99.90
14006;DHT22;7078;51.542;7.314;2024-02-23T09:02:39;7.30;99.90
14006;DHT22;7078;51.542;7.314;2024-02-23T09:05:07;7.50;99.90
14006;DHT22;7078;51.542;7.314;2024-02-23T09:07:33;7.60;99.90
14006;DHT22;7078;51.542;7.314;2024-02-23T09:09:58;7.70;99.90
14006;DHT22;7078;51.542;7.314;2024-02-23T09:12:24;7.70;99.90
14006;DHT22;7078;51.542;7.314;2024-02-23T09:14:51;7.60;99.90
14006;DHT22;7078;51.542;7.314;2024-02-23T09:17:16;7.50;99.90
14006;DHT22;7078;51.542;7.314;2024-02-23T09:19:44;7.50;99.90
14006;DHT22;7078;51.542;7.314;2024-02-23T09:22:09;7.50;99.90
14006;DHT22;7078;51.542;7.314;2024-02-23T09:24:35;7.50;99.90
14006;DHT22;7078;51.542;7.314;2024-02-23T09:27:00;7.50;99.90
14006;DHT22;7078;51.542;7.314;2024-02-23T09:29:26;7.50;99.90
14006;DHT22;7078;51.542;7.314;2024-02-23T09:31:51;7.50;99.90
14006;DHT22;7078;51.542;7.314;2024-02-23T09:34:18;7.50;99.90
14006;DHT22;7078;51.542;7.314;2024-02-23T09:36:43;7.60;99.90
14006;DHT22;7078;51.542;7.314;2024-02-23T09:39:09;7.60;99.90
14006;DHT22;7078;51.542;7.314;2024-02-23T09:41:35;7.60;99.90
14006;DHT22;7078;51.542;7.314;2024-02-23T09:44:02;7.70;99.90
14006;DHT22;7078;51.542;7.314;2024-02-23T09:46:28;7.70;99.90
14006;DHT22;7078;51.542;7.314;2024-02-23T09:48:55;7.70;99.90
14006;DHT22;7078;51.542;7.314;2024-02-23T09:51:23;7.70;99.90
14006;DHT22;7078;51.542;7.314;2024-02-23T09:53:50;7.80;99.90
14006;DHT22;7078;51.542;7.314;2024-02-23T09:56:17;7.80;99.90
14006;DHT22;7078;51.542;7.314;2024-02-23T09:58:43;7.90;99.90
14006;DHT22;7078;51.542;7.314;2024-02-23T10:01:10;7.90;99.90
14006;DHT22;7078;51.542;7.314;2024-02-23T10:03:37;8.00;99.90
14006;DHT22;7078;51.542;7.314;2024-02-23T10:06:04;8.00;99.90
14006;DHT22;7078;51.542;7.314;2024-02-23T10:08:30;8.00;99.90
14006;DHT22;7078;51.542;7.314;2024-02-23T10:10:56;8.00;99.90
14006;DHT22;7078;51.542;7.314;2024-02-23T10:13:23;8.10;99.90
14006;DHT22;7078;51.542;7.314;2024-02-23T10:15:52;8.20;99.90
14006;DHT22;7078;51.542;7.314;2024-02-23T10:18:19;8.20;99.90
14006;DHT22;7078;51.542;7.314;2024-02-23T10:20:47;8.20;99.90
14006;DHT22;7078;51.542;7.314;2024-02-23T10:23:13;8.30;99.90
14006;DHT22;7078;51.542;7.314;2024-02-23T10:25:39;8.30;99.90
14006;DHT22;7078;51.542;7.314;2024-02-23T10:28:05;8.20;99.90
14006;DHT22;7078;51.542;7.314;2024-02-23T10:30:32;8.30;99.90
14006;DHT22;7078;51.542;7.314;2024-02-23T10:32:58;8.40;99.90
14006;DHT22;7078;51.542;7.314;2024-02-23T10:35:25;8.40;99.90
14006;DHT22;7078;51.542;7.314;2024-02-23T10:37:52;8.50;99.90
14006;DHT22;7078;51.542;7.314;2024-02-23T10:40:19;8.50;99.90
14006;DHT22;7078;51.542;7.314;2024-02-23T10:42:46;8.50;99.90
14006;DHT22;7078;51.542;7.314;2024-02-23T10:45:20;8.60;99.90
14006;DHT22;7078;51.542;7.314;2024-02-23T10:47:48;8.60;99.90
14006;DHT22;7078;51.542;7.314;2024-02-23T10:50:14;8.50;99.90
14006;DHT22;7078;51.542;7.314;2024-02-23T10:52:42;8.50;99.90
14006;DHT22;7078;51.542;7.314;2024-02-23T10:55:11;8.50;99.90
14006;DHT22;7078;51.542;7.314;2024-02-23T10:57:36;8.60;99.90
14006;DHT22;7078;51.542;7.314;2024-02-23T11:00:03;8.60;99.90
14006;DHT22;7078;51.542;7.314;2024-02-23T11:02:34;8.60;99.90
14006;DHT22;7078;51.542;7.314;2024-02-23T11:05:01;8.70;99.90
14006;DHT22;7078;51.542;7.314;2024-02-23T11:07:29;8.70;99.90
14006;DHT22;7078;51.542;7.314;2024-02-23T11:09:59;8.70;99.90
14006;DHT22;7078;51.542;7.314;2024-02-23T11:12:25;8.70;99.90
14006;DHT22;7078;51.542;7.314;2024-02-23T11:14:51;8.80;99.90
14006;DHT22;7078;51.542;7.314;2024-02-23T11:17:22;9.00;99.90
14006;DHT22;7078;51.542;7.314;2024-02-23T11:19:49;9.10;98.50
14006;DHT22;7078;51.542;7.314;2024-02-23T11:22:24;9.30;97.50
14006;DHT22;7078;51.542;7.314;2024-02-23T11:24:50;9.40;97.40
14006;DHT22;7078;51.542;7.314;2024-02-23T11:27:16;9.60;95.20
14006;DHT22;7078;51.542;7.314;2024-02-23T11:29:47;9.60;94.20
14006;DHT22;7078;51.542;7.314;2024-02-23T11:32:16;9.40;94.30
14006;DHT22;7078;51.542;7.314;2024-02-23T11:34:54;9.40;95.60
14006;DHT22;7078;51.542;7.314;2024-02-23T11:37:21;9.40;95.20
14006;DHT22;7078;51.542;7.314;2024-02-23T11:39:46;9.30;94.50
14006;DHT22;7078;51.542;7.314;2024-02-23T11:42:12;9.30;95.00
14006;DHT22;7078;51.542;7.314;2024-02-23T11:44:37;9.30;95.20
14006;DHT22;7078;51.542;7.314;2024-02-23T11:47:03;9.20;94.40
14006;DHT22;7078;51.542;7.314;2024-02-23T11:49:29;9.10;94.50
14006;DHT22;7078;51.542;7.314;2024-02-23T11:51:55;9.10;95.50
14006;DHT22;7078;51.542;7.314;2024-02-23T11:54:22;9.10;95.90
14006;DHT22;7078;51.542;7.314;2024-02-23T11:56:48;9.20;95.40
14006;DHT22;7078;51.542;7.314;2024-02-23T11:59:15;9.10;95.90
14006;DHT22;7078;51.542;7.314;2024-02-23T12:01:41;9.20;96.30
14006;DHT22;7078;51.542;7.314;2024-02-23T12:04:07;9.20;95.70
14006;DHT22;7078;51.542;7.314;2024-02-23T12:06:33;9.20;96.30
14006;DHT22;7078;51.542;7.314;2024-02-23T12:08:59;9.00;96.10
14006;DHT22;7078;51.542;7.314;2024-02-23T12:11:26;8.90;97.00
14006;DHT22;7078;51.542;7.314;2024-02-23T12:13:52;8.80;98.20
14006;DHT22;7078;51.542;7.314;2024-02-23T12:16:18;8.70;99.70
14006;DHT22;7078;51.542;7.314;2024-02-23T12:18:53;8.60;99.90
14006;DHT22;7078;51.542;7.314;2024-02-23T12:21:20;8.70;99.90
14006;DHT22;7078;51.542;7.314;2024-02-23T12:23:48;8.80;99.90
14006;DHT22;7078;51.542;7.314;2024-02-23T12:26:15;8.80;99.90
14006;DHT22;7078;51.542;7.314;2024-02-23T12:28:41;8.80;99.90
14006;DHT22;7078;51.542;7.314;2024-02-23T12:31:07;8.80;99.90
14006;DHT22;7078;51.542;7.314;2024-02-23T12:33:37;8.80;99.90
14006;DHT22;7078;51.542;7.314;2024-02-23T12:36:04;8.70;99.90
14006;DHT22;7078;51.542;7.314;2024-02-23T12:38:30;8.70;99.90
14006;DHT22;7078;51.542;7.314;2024-02-23T12:40:56;8.70;99.90
14006;DHT22;7078;51.542;7.314;2024-02-23T12:43:22;8.60;99.90
14006;DHT22;7078;51.542;7.314;2024-02-23T12:45:50;8.60;99.90
14006;DHT22;7078;51.542;7.314;2024-02-23T12:48:16;8.80;99.90
14006;DHT22;7078;51.542;7.314;2024-02-23T12:50:43;8.80;99.90
14006;DHT22;7078;51.542;7.314;2024-02-23T12:53:30;8.80;99.90
14006;DHT22;7078;51.542;7.314;2024-02-23T12:55:57;8.80;99.90
14006;DHT22;7078;51.542;7.314;2024-02-23T12:58:23;8.90;99.90
14006;DHT22;7078;51.542;7.314;2024-02-23T13:00:48;9.00;99.60
14006;DHT22;7078;51.542;7.314;2024-02-23T13:03:14;9.10;99.10
14006;DHT22;7078;51.542;7.314;2024-02-23T13:05:39;9.10;99.50
14006;DHT22;7078;51.542;7.314;2024-02-23T13:08:05;9.10;98.80
14006;DHT22;7078;51.542;7.314;2024-02-23T13:10:30;9.10;98.20
14006;DHT22;7078;51.542;7.314;2024-02-23T13:12:56;9.20;98.90
14006;DHT22;7078;51.542;7.314;2024-02-23T13:15:22;9.20;98.70
14006;DHT22;7078;51.542;7.314;2024-02-23T13:17:47;9.20;97.80
14006;DHT22;7078;51.542;7.314;2024-02-23T13:20:14;9.20;97.30
14006;DHT22;7078;51.542;7.314;2024-02-23T13:22:39;9.20;97.70
14006;DHT22;7078;51.542;7.314;2024-02-23T13:25:05;9.20;97.80
14006;DHT22;7078;51.542;7.314;2024-02-23T13:27:31;9.30;97.20
14006;DHT22;7078;51.542;7.314;2024-02-23T13:29:56;9.30;97.80
14006;DHT22;7078;51.542;7.314;2024-02-23T13:32:22;9.30;97.90
14006;DHT22;7078;51.542;7.314;2024-02-23T13:34:48;9.30;97.80
14006;DHT22;7078;51.542;7.314;2024-02-23T13:37:17;9.30;99.30
14006;DHT22;7078;51.542;7.314;2024-02-23T13:39:43;9.20;99.90
14006;DHT22;7078;51.542;7.314;2024-02-23T13:42:09;9.10;99.90
14006;DHT22;7078;51.542;7.314;2024-02-23T13:44:35;9.20;99.90
14006;DHT22;7078;51.542;7.314;2024-02-23T13:47:01;9.20;99.90
14006;DHT22;7078;51.542;7.314;2024-02-23T13:49:27;9.20;99.90
14006;DHT22;7078;51.542;7.314;2024-02-23T13:51:52;9.10;99.90
14006;DHT22;7078;51.542;7.314;2024-02-23T13:54:18;9.10;99.90
14006;DHT22;7078;51.542;7.314;2024-02-23T13:56:43;9.00;99.90
14006;DHT22;7078;51.542;7.314;2024-02-23T13:59:09;8.90;99.90
14006;DHT22;7078;51.542;7.314;2024-02-23T14:01:34;8.90;99.90
14006;DHT22;7078;51.542;7.314;2024-02-23T14:04:06;8.90;99.90
14006;DHT22;7078;51.542;7.314;2024-02-23T14:06:31;8.90;99.90
14006;DHT22;7078;51.542;7.314;2024-02-23T14:08:57;8.90;99.90
14006;DHT22;7078;51.542;7.314;2024-02-23T14:11:23;8.80;99.90
14006;DHT22;7078;51.542;7.314;2024-02-23T14:13:48;8.80;99.90
14006;DHT22;7078;51.542;7.314;2024-02-23T14:16:14;8.90;99.90
14006;DHT22;7078;51.542;7.314;2024-02-23T14:18:39;8.90;99.90
14006;DHT22;7078;51.542;7.314;2024-02-23T14:21:08;8.90;99.90
14006;DHT22;7078;51.542;7.314;2024-02-23T14:23:33;9.00;99.90
14006;DHT22;7078;51.542;7.314;2024-02-23T14:25:59;9.00;99.90
14006;DHT22;7078;51.542;7.314;2024-02-23T14:28:25;9.00;99.90
14006;DHT22;7078;51.542;7.314;2024-02-23T14:30:51;9.10;99.90
14006;DHT22;7078;51.542;7.314;2024-02-23T14:33:18;9.20;99.90
14006;DHT22;7078;51.542;7.314;2024-02-23T14:35:44;9.20;99.90
14006;DHT22;7078;51.542;7.314;2024-02-23T14:38:09;9.30;99.90
14006;DHT22;7078;51.542;7.314;2024-02-23T14:40:35;9.30;99.90
14006;DHT22;7078;51.542;7.314;2024-02-23T14:43:00;9.30;99.90
14006;DHT22;7078;51.542;7.314;2024-02-23T14:45:26;9.30;99.90
14006;DHT22;7078;51.542;7.314;2024-02-23T14:47:53;9.40;99.90
14006;DHT22;7078;51.542;7.314;2024-02-23T14:50:19;9.30;99.90
14006;DHT22;7078;51.542;7.314;2024-02-23T14:52:45;9.40;99.90
14006;DHT22;7078;51.542;7.314;2024-02-23T14:55:10;9.40;99.90
14006;DHT22;7078;51.542;7.314;2024-02-23T14:57:39;9.40;99.90
14006;DHT22;7078;51.542;7.314;2024-02-23T15:00:05;9.40;99.90
14006;DHT22;7078;51.542;7.314;2024-02-23T15:02:31;9.50;99.80
14006;DHT22;7078;51.542;7.314;2024-02-23T15:04:56;9.50;99.20
14006;DHT22;7078;51.542;7.314;2024-02-23T15:07:22;9.50;98.60
14006;DHT22;7078;51.542;7.314;2024-02-23T15:09:47;9.60;97.40
14006;DHT22;7078;51.542;7.314;2024-02-23T15:12:13;9.50;97.20
14006;DHT22;7078;51.542;7.314;2024-02-23T15:14:39;9.60;98.60
14006;DHT22;7078;51.542;7.314;2024-02-23T15:17:05;9.50;99.90
14006;DHT22;7078;51.542;7.314;2024-02-23T15:19:30;9.30;99.90
14006;DHT22;7078;51.542;7.314;2024-02-23T15:21:56;9.20;99.90
14006;DHT22;7078;51.542;7.314;2024-02-23T15:24:22;9.10;99.90
14006;DHT22;7078;51.542;7.314;2024-02-23T15:26:49;9.10;99.90
14006;DHT22;7078;51.542;7.314;2024-02-23T15:29:15;9.10;99.90
14006;DHT22;7078;51.542;7.314;2024-02-23T15:31:41;9.20;99.90
14006;DHT22;7078;51.542;7.314;2024-02-23T15:34:08;9.10;99.90
14006;DHT22;7078;51.542;7.314;2024-02-23T15:36:33;9.10;99.90
14006;DHT22;7078;51.542;7.314;2024-02-23T15:38:59;9.10;99.90
14006;DHT22;7078;51.542;7.314;2024-02-23T15:41:34;9.10;99.90
14006;DHT22;7078;51.542;7.314;2024-02-23T15:44:00;9.00;99.90
14006;DHT22;7078;51.542;7.314;2024-02-23T15:46:26;8.80;99.90
14006;DHT22;7078;51.542;7.314;2024-02-23T15:48:52;8.60;99.90
14006;DHT22;7078;51.542;7.314;2024-02-23T15:51:18;8.60;99.90
14006;DHT22;7078;51.542;7.314;2024-02-23T15:53:44;8.70;99.90
14006;DHT22;7078;51.542;7.314;2024-02-23T15:56:09;8.70;99.90